This is the latest recevied weather packets stored in our database for station/object DG3NAD-21. If no packets are shown the sender has not sent any weather packets the latest 1 day(s).
| Time | Temp. | Humidity | Pressure | Rain* | Wind** | Luminosity | Snow |
|---|---|---|---|---|---|---|---|
| 1778405391 | 22.22° C | 42% | 1015.3 hPa | - | - | - | - |
| 1778404491 | 22.22° C | 44% | 1015.4 hPa | - | - | - | - |
| 1778403591 | 21.67° C | 44% | 1015.5 hPa | - | - | - | - |
| 1778402691 | 21.67° C | 44% | 1015.6 hPa | - | - | - | - |
| 1778401791 | 21.11° C | 45% | 1015.8 hPa | - | - | - | - |
| 1778400891 | 21.11° C | 45% | 1015.9 hPa | - | - | - | - |
| 1778399990 | 20.56° C | 46% | 1016 hPa | - | - | - | - |
| 1778399090 | 20.56° C | 46% | 1016 hPa | - | - | - | - |
| 1778398190 | 20.56° C | 45% | 1016.1 hPa | - | - | - | - |
| 1778397290 | 21.11° C | 44% | 1016.3 hPa | - | - | - | - |
| 1778396390 | 22.22° C | 42% | 1016.4 hPa | - | - | - | - |
| 1778395490 | 21.67° C | 46% | 1016.4 hPa | - | - | - | - |
| 1778394590 | 21.67° C | 49% | 1016.5 hPa | - | - | - | - |
| 1778393690 | 21.11° C | 49% | 1016.5 hPa | - | - | - | - |
| 1778392789 | 16.67° C | 57% | 1016.6 hPa | - | - | - | - |
| 1778391889 | 16.11° C | 57% | 1016.6 hPa | - | - | - | - |
| 1778390989 | 15.56° C | 58% | 1016.8 hPa | - | - | - | - |
| 1778390089 | 15° C | 58% | 1016.9 hPa | - | - | - | - |
| 1778389189 | 15° C | 59% | 1017 hPa | - | - | - | - |
| 1778388289 | 14.44° C | 59% | 1017 hPa | - | - | - | - |
| 1778387389 | 14.44° C | 59% | 1017.1 hPa | - | - | - | - |
| 1778386489 | 14.44° C | 59% | 1017.1 hPa | - | - | - | - |
| 1778385588 | 13.89° C | 59% | 1017.1 hPa | - | - | - | - |
| 1778384688 | 14.44° C | 58% | 1017.2 hPa | - | - | - | - |
| 1778383788 | 14.44° C | 59% | 1017.1 hPa | - | - | - | - |
* Rain since midnight (hover to see other rain measurements)
** Current wind speed in m/s (hover to see current wind gust speed)